Hauptseite
METAR-TAF:

METAR-TAF

Flughäfen :

Flughafen Djerba

Djerba, Tunesien

Breite: 33-52N, Länge: 010-46E, Höhe: 3 m

Beobachtung

Neuester Wetterbericht von vor 43 Minuten, um 04:00 UTC
Wind 10 kt aus Nord
Temperatur 18°C
Luftfeuchtigkeit 88%
Luftdruck 1013 hPa
Sichtweite: 6000 m
Aufgelockert bewölkt in der Höhe von 3000 ft

METAR: DTTJ 250400Z 01010KT 6000 SCT030 18/16 Q1013 NOSIG

Zeit: 05:43 (04:43 UTC)

Prognose

Neuester Wetterbericht von vor 5 Stunden und 43 Minuten, um 23:00 UTC
Gültige Prognose vom 25 um 00 UTC bis 25 um 24 UTC
Wind 13 kt aus Nord/Nordost
Sichtweite: 5000 m
Aufgelockert bewölkt in der Höhe von 3000 ft
Übergehend zu
vom 25 um 18 UTC bis 25 um 20 UTC
Wind 5 kt aus Nord/Nordost

TAF: DTTJ 242300Z 2500/2524 03013KT 5000 SCT030 BECMG 2518/2520 03005KT

Wetterbeobachtungen und Prognosen von mehr als 4000 Flughäfen (METAR und TAF Bericht).

Die verfügbaren Stationen werden durch gelbe und rote Markierungen auf der Karte dargestellt.

Führen Sie die Maus auf sie, um den Namen der Station zu sehen.

Darauf klicken, um die Beobachtung von Wetterbeobachtungen und Prognosen zu sehen.

Um die Karte zu ändern : klicken Sie auf den grünen Tasten mit einem schwarzen Kreuz Zum Vergrößern, auf den grünen Button mit einem Gedankenstrich zu verkleinern, oder auf die grünen Pfeile für benachbarte Karten.


METAR-TAF: